sensor_id;sensor_type;location;lat;lon;timestamp;P1;durP1;ratioP1;P2;durP2;ratioP2
85726;SDS011;76171;45.484;-73.496;2024-03-17T00:01:08;2.90;;;1.27;;
85726;SDS011;76171;45.484;-73.496;2024-03-17T00:03:37;4.93;;;1.23;;
85726;SDS011;76171;45.484;-73.496;2024-03-17T00:06:02;2.47;;;1.20;;
85726;SDS011;76171;45.484;-73.496;2024-03-17T00:08:36;4.30;;;1.23;;
85726;SDS011;76171;45.484;-73.496;2024-03-17T00:11:05;3.05;;;1.17;;
85726;SDS011;76171;45.484;-73.496;2024-03-17T00:13:36;1.73;;;0.85;;
85726;SDS011;76171;45.484;-73.496;2024-03-17T00:16:02;3.67;;;1.10;;
85726;SDS011;76171;45.484;-73.496;2024-03-17T00:20:56;1.90;;;1.10;;
85726;SDS011;76171;45.484;-73.496;2024-03-17T00:23:25;3.20;;;1.40;;
85726;SDS011;76171;45.484;-73.496;2024-03-17T00:25:51;2.25;;;1.20;;
85726;SDS011;76171;45.484;-73.496;2024-03-17T00:28:20;2.75;;;1.02;;
85726;SDS011;76171;45.484;-73.496;2024-03-17T00:30:48;2.58;;;1.20;;
85726;SDS011;76171;45.484;-73.496;2024-03-17T00:33:14;2.58;;;1.08;;
85726;SDS011;76171;45.484;-73.496;2024-03-17T00:35:44;3.17;;;1.30;;
85726;SDS011;76171;45.484;-73.496;2024-03-17T00:38:10;1.95;;;1.10;;
85726;SDS011;76171;45.484;-73.496;2024-03-17T00:40:38;4.13;;;1.30;;
85726;SDS011;76171;45.484;-73.496;2024-03-17T00:43:10;3.15;;;1.23;;
85726;SDS011;76171;45.484;-73.496;2024-03-17T00:45:39;2.03;;;1.10;;
85726;SDS011;76171;45.484;-73.496;2024-03-17T00:48:09;2.63;;;1.50;;
85726;SDS011;76171;45.484;-73.496;2024-03-17T00:50:40;2.70;;;1.15;;
85726;SDS011;76171;45.484;-73.496;2024-03-17T00:53:11;2.25;;;1.45;;
85726;SDS011;76171;45.484;-73.496;2024-03-17T00:55:39;3.28;;;1.30;;
85726;SDS011;76171;45.484;-73.496;2024-03-17T00:58:10;2.10;;;1.20;;
85726;SDS011;76171;45.484;-73.496;2024-03-17T01:03:03;1.52;;;0.98;;
85726;SDS011;76171;45.484;-73.496;2024-03-17T01:05:29;3.63;;;1.30;;
85726;SDS011;76171;45.484;-73.496;2024-03-17T01:07:56;4.47;;;1.80;;
85726;SDS011;76171;45.484;-73.496;2024-03-17T01:10:24;6.28;;;1.70;;
85726;SDS011;76171;45.484;-73.496;2024-03-17T01:12:55;3.75;;;1.60;;
85726;SDS011;76171;45.484;-73.496;2024-03-17T01:15:21;3.65;;;1.70;;
85726;SDS011;76171;45.484;-73.496;2024-03-17T01:17:52;3.95;;;1.50;;
85726;SDS011;76171;45.484;-73.496;2024-03-17T01:20:20;3.10;;;1.40;;
85726;SDS011;76171;45.484;-73.496;2024-03-17T01:22:49;3.75;;;1.30;;
85726;SDS011;76171;45.484;-73.496;2024-03-17T01:25:15;4.90;;;1.50;;
85726;SDS011;76171;45.484;-73.496;2024-03-17T01:30:11;2.70;;;1.30;;
85726;SDS011;76171;45.484;-73.496;2024-03-17T01:32:40;3.13;;;1.85;;
85726;SDS011;76171;45.484;-73.496;2024-03-17T01:35:08;3.20;;;1.60;;
85726;SDS011;76171;45.484;-73.496;2024-03-17T01:37:37;3.58;;;1.55;;
85726;SDS011;76171;45.484;-73.496;2024-03-17T01:40:06;6.38;;;2.00;;
85726;SDS011;76171;45.484;-73.496;2024-03-17T01:42:38;6.22;;;1.65;;
85726;SDS011;76171;45.484;-73.496;2024-03-17T01:47:45;4.10;;;1.52;;
85726;SDS011;76171;45.484;-73.496;2024-03-17T01:50:11;3.90;;;1.45;;
85726;SDS011;76171;45.484;-73.496;2024-03-17T01:52:38;5.75;;;1.77;;
85726;SDS011;76171;45.484;-73.496;2024-03-17T01:55:07;3.67;;;1.70;;
85726;SDS011;76171;45.484;-73.496;2024-03-17T01:57:36;3.28;;;1.60;;
85726;SDS011;76171;45.484;-73.496;2024-03-17T02:00:02;2.22;;;1.42;;
85726;SDS011;76171;45.484;-73.496;2024-03-17T02:02:30;3.17;;;1.60;;
85726;SDS011;76171;45.484;-73.496;2024-03-17T02:04:56;3.47;;;1.25;;
85726;SDS011;76171;45.484;-73.496;2024-03-17T02:07:28;4.57;;;1.98;;
85726;SDS011;76171;45.484;-73.496;2024-03-17T02:09:56;3.67;;;1.58;;
85726;SDS011;76171;45.484;-73.496;2024-03-17T02:12:25;4.38;;;1.70;;
85726;SDS011;76171;45.484;-73.496;2024-03-17T02:14:53;3.35;;;1.73;;
85726;SDS011;76171;45.484;-73.496;2024-03-17T02:17:19;3.15;;;1.60;;
85726;SDS011;76171;45.484;-73.496;2024-03-17T02:19:51;2.78;;;1.58;;
85726;SDS011;76171;45.484;-73.496;2024-03-17T02:22:24;3.58;;;1.60;;
85726;SDS011;76171;45.484;-73.496;2024-03-17T02:24:52;4.45;;;1.40;;
85726;SDS011;76171;45.484;-73.496;2024-03-17T02:27:23;3.95;;;1.50;;
85726;SDS011;76171;45.484;-73.496;2024-03-17T02:29:52;3.22;;;1.73;;
85726;SDS011;76171;45.484;-73.496;2024-03-17T02:32:18;3.55;;;1.88;;
85726;SDS011;76171;45.484;-73.496;2024-03-17T02:34:47;3.20;;;1.50;;
85726;SDS011;76171;45.484;-73.496;2024-03-17T02:37:19;3.13;;;1.52;;
85726;SDS011;76171;45.484;-73.496;2024-03-17T02:39:48;3.72;;;1.67;;
85726;SDS011;76171;45.484;-73.496;2024-03-17T02:42:14;4.70;;;2.03;;
85726;SDS011;76171;45.484;-73.496;2024-03-17T02:44:40;5.13;;;1.67;;
85726;SDS011;76171;45.484;-73.496;2024-03-17T02:47:09;2.63;;;1.73;;
85726;SDS011;76171;45.484;-73.496;2024-03-17T02:49:35;2.83;;;1.63;;
85726;SDS011;76171;45.484;-73.496;2024-03-17T02:52:07;3.38;;;1.50;;
85726;SDS011;76171;45.484;-73.496;2024-03-17T02:54:39;2.60;;;1.83;;
85726;SDS011;76171;45.484;-73.496;2024-03-17T02:57:06;4.28;;;1.80;;
85726;SDS011;76171;45.484;-73.496;2024-03-17T02:59:32;2.80;;;1.60;;
85726;SDS011;76171;45.484;-73.496;2024-03-17T03:01:58;2.65;;;1.50;;
85726;SDS011;76171;45.484;-73.496;2024-03-17T03:04:25;2.45;;;1.60;;
85726;SDS011;76171;45.484;-73.496;2024-03-17T03:06:51;4.47;;;1.95;;
85726;SDS011;76171;45.484;-73.496;2024-03-17T03:09:17;2.45;;;1.45;;
85726;SDS011;76171;45.484;-73.496;2024-03-17T03:11:51;3.15;;;1.65;;
85726;SDS011;76171;45.484;-73.496;2024-03-17T03:14:17;2.90;;;1.60;;
85726;SDS011;76171;45.484;-73.496;2024-03-17T03:16:44;2.92;;;1.88;;
85726;SDS011;76171;45.484;-73.496;2024-03-17T03:19:10;3.15;;;1.65;;
85726;SDS011;76171;45.484;-73.496;2024-03-17T03:21:36;2.60;;;1.40;;
85726;SDS011;76171;45.484;-73.496;2024-03-17T03:24:02;2.80;;;1.67;;
85726;SDS011;76171;45.484;-73.496;2024-03-17T03:26:28;3.70;;;1.90;;
85726;SDS011;76171;45.484;-73.496;2024-03-17T03:28:53;2.72;;;1.88;;
85726;SDS011;76171;45.484;-73.496;2024-03-17T03:31:20;3.88;;;1.83;;
85726;SDS011;76171;45.484;-73.496;2024-03-17T03:33:47;2.95;;;1.48;;
85726;SDS011;76171;45.484;-73.496;2024-03-17T03:36:13;5.15;;;2.13;;
85726;SDS011;76171;45.484;-73.496;2024-03-17T03:38:40;3.22;;;1.73;;
85726;SDS011;76171;45.484;-73.496;2024-03-17T03:41:10;5.53;;;2.30;;
85726;SDS011;76171;45.484;-73.496;2024-03-17T03:43:38;3.65;;;2.08;;
85726;SDS011;76171;45.484;-73.496;2024-03-17T03:46:04;4.95;;;2.22;;
85726;SDS011;76171;45.484;-73.496;2024-03-17T03:48:35;5.65;;;1.42;;
85726;SDS011;76171;45.484;-73.496;2024-03-17T03:51:08;2.80;;;1.55;;
85726;SDS011;76171;45.484;-73.496;2024-03-17T03:53:34;3.17;;;1.70;;
85726;SDS011;76171;45.484;-73.496;2024-03-17T03:56:04;2.72;;;1.75;;
85726;SDS011;76171;45.484;-73.496;2024-03-17T03:58:36;3.33;;;1.60;;
85726;SDS011;76171;45.484;-73.496;2024-03-17T04:01:04;3.33;;;1.65;;
85726;SDS011;76171;45.484;-73.496;2024-03-17T04:03:33;3.30;;;1.67;;
85726;SDS011;76171;45.484;-73.496;2024-03-17T04:08:36;3.22;;;1.58;;
85726;SDS011;76171;45.484;-73.496;2024-03-17T04:11:05;3.88;;;1.67;;
85726;SDS011;76171;45.484;-73.496;2024-03-17T04:13:32;2.30;;;1.30;;
85726;SDS011;76171;45.484;-73.496;2024-03-17T04:15:59;2.67;;;1.48;;
85726;SDS011;76171;45.484;-73.496;2024-03-17T04:18:28;2.72;;;1.60;;
85726;SDS011;76171;45.484;-73.496;2024-03-17T04:21:03;3.30;;;1.73;;
85726;SDS011;76171;45.484;-73.496;2024-03-17T04:23:33;2.30;;;1.27;;
85726;SDS011;76171;45.484;-73.496;2024-03-17T04:26:01;2.70;;;1.77;;
85726;SDS011;76171;45.484;-73.496;2024-03-17T04:28:28;2.28;;;1.38;;
85726;SDS011;76171;45.484;-73.496;2024-03-17T04:31:07;2.17;;;1.27;;
85726;SDS011;76171;45.484;-73.496;2024-03-17T04:33:35;3.20;;;1.77;;
85726;SDS011;76171;45.484;-73.496;2024-03-17T04:36:04;3.15;;;1.73;;
85726;SDS011;76171;45.484;-73.496;2024-03-17T04:38:34;3.10;;;1.88;;
85726;SDS011;76171;45.484;-73.496;2024-03-17T04:40:59;2.65;;;1.52;;
85726;SDS011;76171;45.484;-73.496;2024-03-17T04:43:33;2.42;;;1.40;;
85726;SDS011;76171;45.484;-73.496;2024-03-17T04:46:03;2.85;;;1.42;;
85726;SDS011;76171;45.484;-73.496;2024-03-17T04:48:31;2.88;;;1.60;;
85726;SDS011;76171;45.484;-73.496;2024-03-17T04:50:58;2.53;;;1.40;;
85726;SDS011;76171;45.484;-73.496;2024-03-17T04:53:25;2.65;;;1.58;;
85726;SDS011;76171;45.484;-73.496;2024-03-17T04:55:59;3.10;;;1.67;;
85726;SDS011;76171;45.484;-73.496;2024-03-17T04:58:30;3.55;;;1.52;;
85726;SDS011;76171;45.484;-73.496;2024-03-17T05:01:05;3.10;;;1.65;;
85726;SDS011;76171;45.484;-73.496;2024-03-17T05:03:32;2.50;;;1.55;;
85726;SDS011;76171;45.484;-73.496;2024-03-17T05:06:02;3.92;;;1.80;;
85726;SDS011;76171;45.484;-73.496;2024-03-17T05:08:29;3.00;;;1.70;;
85726;SDS011;76171;45.484;-73.496;2024-03-17T05:10:57;2.80;;;1.65;;
85726;SDS011;76171;45.484;-73.496;2024-03-17T05:13:29;3.33;;;1.67;;
85726;SDS011;76171;45.484;-73.496;2024-03-17T05:15:55;6.18;;;1.92;;
85726;SDS011;76171;45.484;-73.496;2024-03-17T05:18:21;3.55;;;1.75;;
85726;SDS011;76171;45.484;-73.496;2024-03-17T05:20:56;4.65;;;2.60;;
85726;SDS011;76171;45.484;-73.496;2024-03-17T05:23:26;3.15;;;1.75;;
85726;SDS011;76171;45.484;-73.496;2024-03-17T05:25:53;3.45;;;1.77;;
85726;SDS011;76171;45.484;-73.496;2024-03-17T05:28:20;3.40;;;2.05;;
85726;SDS011;76171;45.484;-73.496;2024-03-17T05:30:47;5.53;;;2.45;;
85726;SDS011;76171;45.484;-73.496;2024-03-17T05:33:19;4.78;;;2.45;;
85726;SDS011;76171;45.484;-73.496;2024-03-17T05:36:20;4.80;;;2.00;;
85726;SDS011;76171;45.484;-73.496;2024-03-17T05:38:39;4.00;;;2.10;;
85726;SDS011;76171;45.484;-73.496;2024-03-17T05:41:05;4.22;;;2.22;;
85726;SDS011;76171;45.484;-73.496;2024-03-17T05:43:33;3.95;;;2.00;;
85726;SDS011;76171;45.484;-73.496;2024-03-17T05:46:03;3.47;;;2.13;;
85726;SDS011;76171;45.484;-73.496;2024-03-17T05:48:34;4.85;;;1.63;;
85726;SDS011;76171;45.484;-73.496;2024-03-17T05:51:05;3.35;;;1.80;;
85726;SDS011;76171;45.484;-73.496;2024-03-17T05:56:00;3.63;;;1.98;;
85726;SDS011;76171;45.484;-73.496;2024-03-17T05:58:27;3.45;;;1.65;;
85726;SDS011;76171;45.484;-73.496;2024-03-17T06:00:53;3.60;;;2.00;;
85726;SDS011;76171;45.484;-73.496;2024-03-17T06:03:19;7.75;;;2.08;;
85726;SDS011;76171;45.484;-73.496;2024-03-17T06:05:46;5.95;;;2.10;;
85726;SDS011;76171;45.484;-73.496;2024-03-17T06:08:13;4.32;;;2.25;;
85726;SDS011;76171;45.484;-73.496;2024-03-17T06:10:43;5.38;;;2.40;;
85726;SDS011;76171;45.484;-73.496;2024-03-17T06:13:13;3.40;;;2.03;;
85726;SDS011;76171;45.484;-73.496;2024-03-17T06:15:42;3.92;;;2.20;;
85726;SDS011;76171;45.484;-73.496;2024-03-17T06:18:12;5.88;;;2.53;;
85726;SDS011;76171;45.484;-73.496;2024-03-17T06:20:42;3.38;;;2.10;;
85726;SDS011;76171;45.484;-73.496;2024-03-17T06:23:13;6.20;;;2.33;;
85726;SDS011;76171;45.484;-73.496;2024-03-17T06:25:42;3.67;;;2.05;;
85726;SDS011;76171;45.484;-73.496;2024-03-17T06:28:10;3.65;;;2.17;;
85726;SDS011;76171;45.484;-73.496;2024-03-17T06:30:45;3.78;;;2.28;;
85726;SDS011;76171;45.484;-73.496;2024-03-17T06:33:19;6.03;;;2.13;;
85726;SDS011;76171;45.484;-73.496;2024-03-17T06:35:45;3.85;;;2.13;;
85726;SDS011;76171;45.484;-73.496;2024-03-17T06:38:14;3.35;;;1.88;;
85726;SDS011;76171;45.484;-73.496;2024-03-17T06:40:40;4.53;;;2.53;;
85726;SDS011;76171;45.484;-73.496;2024-03-17T06:43:07;4.18;;;2.22;;
85726;SDS011;76171;45.484;-73.496;2024-03-17T06:45:33;3.65;;;1.83;;
85726;SDS011;76171;45.484;-73.496;2024-03-17T06:48:01;5.53;;;2.97;;
85726;SDS011;76171;45.484;-73.496;2024-03-17T06:50:27;3.53;;;2.00;;
85726;SDS011;76171;45.484;-73.496;2024-03-17T06:52:53;4.60;;;2.30;;
85726;SDS011;76171;45.484;-73.496;2024-03-17T06:55:19;3.92;;;2.63;;
85726;SDS011;76171;45.484;-73.496;2024-03-17T06:57:46;4.65;;;2.38;;
85726;SDS011;76171;45.484;-73.496;2024-03-17T07:00:16;4.28;;;2.25;;
85726;SDS011;76171;45.484;-73.496;2024-03-17T07:02:48;4.07;;;2.53;;
85726;SDS011;76171;45.484;-73.496;2024-03-17T07:05:15;5.00;;;2.40;;
85726;SDS011;76171;45.484;-73.496;2024-03-17T07:07:41;3.10;;;1.90;;
85726;SDS011;76171;45.484;-73.496;2024-03-17T07:10:08;4.13;;;2.17;;
85726;SDS011;76171;45.484;-73.496;2024-03-17T07:12:36;4.45;;;2.13;;
85726;SDS011;76171;45.484;-73.496;2024-03-17T07:15:02;7.80;;;2.50;;
85726;SDS011;76171;45.484;-73.496;2024-03-17T07:17:28;4.20;;;2.03;;
85726;SDS011;76171;45.484;-73.496;2024-03-17T07:19:54;5.22;;;2.30;;
85726;SDS011;76171;45.484;-73.496;2024-03-17T07:22:25;4.30;;;2.40;;
85726;SDS011;76171;45.484;-73.496;2024-03-17T07:24:52;3.20;;;1.98;;
85726;SDS011;76171;45.484;-73.496;2024-03-17T07:27:25;3.47;;;1.70;;
85726;SDS011;76171;45.484;-73.496;2024-03-17T07:29:51;4.53;;;1.90;;
85726;SDS011;76171;45.484;-73.496;2024-03-17T07:32:20;3.75;;;2.08;;
85726;SDS011;76171;45.484;-73.496;2024-03-17T07:34:47;4.72;;;1.95;;
85726;SDS011;76171;45.484;-73.496;2024-03-17T07:37:15;3.97;;;2.00;;
85726;SDS011;76171;45.484;-73.496;2024-03-17T07:39:41;4.68;;;2.03;;
85726;SDS011;76171;45.484;-73.496;2024-03-17T07:42:07;4.22;;;2.38;;
85726;SDS011;76171;45.484;-73.496;2024-03-17T07:44:33;4.03;;;2.08;;
85726;SDS011;76171;45.484;-73.496;2024-03-17T07:47:01;5.55;;;2.13;;
85726;SDS011;76171;45.484;-73.496;2024-03-17T07:49:29;5.40;;;2.50;;
85726;SDS011;76171;45.484;-73.496;2024-03-17T07:51:58;4.63;;;2.10;;
85726;SDS011;76171;45.484;-73.496;2024-03-17T07:54:24;3.92;;;2.20;;
85726;SDS011;76171;45.484;-73.496;2024-03-17T07:56:51;4.13;;;2.20;;
85726;SDS011;76171;45.484;-73.496;2024-03-17T07:59:17;4.85;;;2.63;;
85726;SDS011;76171;45.484;-73.496;2024-03-17T08:01:45;4.57;;;2.40;;
85726;SDS011;76171;45.484;-73.496;2024-03-17T08:04:12;5.07;;;2.30;;
85726;SDS011;76171;45.484;-73.496;2024-03-17T08:06:41;4.53;;;2.22;;
85726;SDS011;76171;45.484;-73.496;2024-03-17T08:09:07;5.20;;;2.28;;
85726;SDS011;76171;45.484;-73.496;2024-03-17T08:11:34;4.18;;;2.20;;
85726;SDS011;76171;45.484;-73.496;2024-03-17T08:14:03;4.35;;;2.63;;
85726;SDS011;76171;45.484;-73.496;2024-03-17T08:18:57;8.15;;;2.13;;
85726;SDS011;76171;45.484;-73.496;2024-03-17T08:21:23;4.75;;;2.28;;
85726;SDS011;76171;45.484;-73.496;2024-03-17T08:23:54;4.90;;;2.53;;
85726;SDS011;76171;45.484;-73.496;2024-03-17T08:28:48;4.28;;;2.25;;
85726;SDS011;76171;45.484;-73.496;2024-03-17T08:31:13;4.10;;;2.20;;
85726;SDS011;76171;45.484;-73.496;2024-03-17T08:33:40;6.32;;;2.35;;
85726;SDS011;76171;45.484;-73.496;2024-03-17T08:36:07;5.18;;;2.20;;
85726;SDS011;76171;45.484;-73.496;2024-03-17T08:38:34;5.53;;;2.08;;
85726;SDS011;76171;45.484;-73.496;2024-03-17T08:41:07;3.83;;;2.30;;
85726;SDS011;76171;45.484;-73.496;2024-03-17T08:43:34;3.78;;;2.35;;
85726;SDS011;76171;45.484;-73.496;2024-03-17T08:46:01;4.97;;;2.53;;
85726;SDS011;76171;45.484;-73.496;2024-03-17T08:48:32;3.88;;;2.15;;
85726;SDS011;76171;45.484;-73.496;2024-03-17T08:51:02;3.65;;;1.92;;
85726;SDS011;76171;45.484;-73.496;2024-03-17T08:53:34;3.78;;;2.17;;
85726;SDS011;76171;45.484;-73.496;2024-03-17T08:56:00;5.50;;;2.20;;
85726;SDS011;76171;45.484;-73.496;2024-03-17T08:58:28;4.72;;;2.50;;
85726;SDS011;76171;45.484;-73.496;2024-03-17T09:00:54;5.78;;;2.47;;
85726;SDS011;76171;45.484;-73.496;2024-03-17T09:05:52;3.95;;;2.20;;
85726;SDS011;76171;45.484;-73.496;2024-03-17T09:08:22;5.57;;;2.80;;
85726;SDS011;76171;45.484;-73.496;2024-03-17T09:10:53;4.55;;;2.42;;
85726;SDS011;76171;45.484;-73.496;2024-03-17T09:13:25;6.20;;;2.50;;
85726;SDS011;76171;45.484;-73.496;2024-03-17T09:18:22;5.57;;;2.30;;
85726;SDS011;76171;45.484;-73.496;2024-03-17T09:23:34;5.57;;;2.80;;
85726;SDS011;76171;45.484;-73.496;2024-03-17T09:28:32;5.90;;;2.63;;
85726;SDS011;76171;45.484;-73.496;2024-03-17T09:33:24;4.30;;;2.10;;
85726;SDS011;76171;45.484;-73.496;2024-03-17T09:35:56;4.78;;;2.33;;
85726;SDS011;76171;45.484;-73.496;2024-03-17T09:38:25;4.72;;;2.58;;
85726;SDS011;76171;45.484;-73.496;2024-03-17T09:40:52;6.63;;;2.63;;
85726;SDS011;76171;45.484;-73.496;2024-03-17T09:43:26;4.60;;;2.42;;
85726;SDS011;76171;45.484;-73.496;2024-03-17T09:45:53;3.75;;;2.10;;
85726;SDS011;76171;45.484;-73.496;2024-03-17T09:48:23;5.15;;;2.25;;
85726;SDS011;76171;45.484;-73.496;2024-03-17T09:50:51;5.03;;;2.83;;
85726;SDS011;76171;45.484;-73.496;2024-03-17T09:53:19;5.05;;;2.10;;
85726;SDS011;76171;45.484;-73.496;2024-03-17T09:55:51;5.82;;;2.53;;
85726;SDS011;76171;45.484;-73.496;2024-03-17T09:58:20;4.80;;;2.60;;
85726;SDS011;76171;45.484;-73.496;2024-03-17T10:00:46;3.80;;;2.38;;
85726;SDS011;76171;45.484;-73.496;2024-03-17T10:03:57;4.70;;;2.60;;
85726;SDS011;76171;45.484;-73.496;2024-03-17T10:06:08;4.63;;;2.30;;
85726;SDS011;76171;45.484;-73.496;2024-03-17T10:08:44;5.38;;;2.45;;
85726;SDS011;76171;45.484;-73.496;2024-03-17T10:11:13;3.42;;;1.92;;
85726;SDS011;76171;45.484;-73.496;2024-03-17T10:13:46;4.38;;;2.35;;
85726;SDS011;76171;45.484;-73.496;2024-03-17T10:16:25;4.85;;;2.53;;
85726;SDS011;76171;45.484;-73.496;2024-03-17T10:21:40;4.93;;;3.10;;
85726;SDS011;76171;45.484;-73.496;2024-03-17T10:24:14;6.53;;;3.15;;
85726;SDS011;76171;45.484;-73.496;2024-03-17T10:26:50;5.32;;;2.72;;
85726;SDS011;76171;45.484;-73.496;2024-03-17T10:29:33;5.40;;;3.33;;
85726;SDS011;76171;45.484;-73.496;2024-03-17T10:32:12;4.63;;;2.55;;
85726;SDS011;76171;45.484;-73.496;2024-03-17T10:34:41;4.45;;;2.40;;
85726;SDS011;76171;45.484;-73.496;2024-03-17T10:37:13;5.80;;;2.42;;
85726;SDS011;76171;45.484;-73.496;2024-03-17T10:39:41;6.18;;;2.55;;
85726;SDS011;76171;45.484;-73.496;2024-03-17T10:42:08;6.15;;;2.20;;
85726;SDS011;76171;45.484;-73.496;2024-03-17T10:44:37;6.22;;;2.55;;
85726;SDS011;76171;45.484;-73.496;2024-03-17T10:47:21;4.82;;;2.33;;
85726;SDS011;76171;45.484;-73.496;2024-03-17T10:49:51;5.70;;;3.10;;
85726;SDS011;76171;45.484;-73.496;2024-03-17T10:52:19;4.03;;;2.75;;
85726;SDS011;76171;45.484;-73.496;2024-03-17T10:54:49;5.10;;;2.72;;
85726;SDS011;76171;45.484;-73.496;2024-03-17T10:57:32;7.72;;;2.90;;
85726;SDS011;76171;45.484;-73.496;2024-03-17T11:00:07;7.80;;;3.00;;
85726;SDS011;76171;45.484;-73.496;2024-03-17T11:02:34;4.90;;;2.72;;
85726;SDS011;76171;45.484;-73.496;2024-03-17T11:05:02;5.45;;;2.92;;
85726;SDS011;76171;45.484;-73.496;2024-03-17T11:07:29;5.03;;;2.58;;
85726;SDS011;76171;45.484;-73.496;2024-03-17T11:10:00;4.78;;;2.65;;
85726;SDS011;76171;45.484;-73.496;2024-03-17T11:17:50;4.75;;;2.85;;
85726;SDS011;76171;45.484;-73.496;2024-03-17T11:20:26;4.85;;;2.92;;
85726;SDS011;76171;45.484;-73.496;2024-03-17T11:22:57;4.50;;;2.42;;
85726;SDS011;76171;45.484;-73.496;2024-03-17T11:27:58;6.28;;;2.95;;
85726;SDS011;76171;45.484;-73.496;2024-03-17T11:47:04;4.82;;;2.33;;
85726;SDS011;76171;45.484;-73.496;2024-03-17T11:49:41;5.85;;;2.45;;
85726;SDS011;76171;45.484;-73.496;2024-03-17T11:54:39;4.30;;;2.15;;
85726;SDS011;76171;45.484;-73.496;2024-03-17T11:59:35;4.05;;;2.10;;
85726;SDS011;76171;45.484;-73.496;2024-03-17T12:04:54;5.75;;;2.53;;
85726;SDS011;76171;45.484;-73.496;2024-03-17T12:07:23;4.88;;;2.35;;
85726;SDS011;76171;45.484;-73.496;2024-03-17T12:09:49;5.18;;;2.25;;
85726;SDS011;76171;45.484;-73.496;2024-03-17T12:12:20;4.82;;;2.08;;
85726;SDS011;76171;45.484;-73.496;2024-03-17T12:14:48;4.13;;;2.22;;
85726;SDS011;76171;45.484;-73.496;2024-03-17T12:17:20;4.25;;;2.20;;
85726;SDS011;76171;45.484;-73.496;2024-03-17T12:19:46;3.58;;;1.90;;
85726;SDS011;76171;45.484;-73.496;2024-03-17T12:22:20;3.42;;;1.70;;
85726;SDS011;76171;45.484;-73.496;2024-03-17T12:24:53;3.38;;;2.20;;
85726;SDS011;76171;45.484;-73.496;2024-03-17T12:27:25;3.58;;;1.90;;
85726;SDS011;76171;45.484;-73.496;2024-03-17T12:29:52;3.60;;;2.28;;
85726;SDS011;76171;45.484;-73.496;2024-03-17T12:32:19;4.95;;;2.10;;
85726;SDS011;76171;45.484;-73.496;2024-03-17T12:34:50;4.18;;;1.98;;
85726;SDS011;76171;45.484;-73.496;2024-03-17T12:37:20;3.22;;;1.70;;
85726;SDS011;76171;45.484;-73.496;2024-03-17T12:39:53;2.80;;;1.58;;
85726;SDS011;76171;45.484;-73.496;2024-03-17T12:42:23;3.47;;;1.77;;
85726;SDS011;76171;45.484;-73.496;2024-03-17T12:44:51;3.33;;;2.22;;
85726;SDS011;76171;45.484;-73.496;2024-03-17T12:47:18;4.75;;;2.70;;
85726;SDS011;76171;45.484;-73.496;2024-03-17T12:52:36;5.75;;;2.45;;
85726;SDS011;76171;45.484;-73.496;2024-03-17T13:00:34;4.43;;;1.90;;
85726;SDS011;76171;45.484;-73.496;2024-03-17T13:03:07;6.03;;;1.90;;
85726;SDS011;76171;45.484;-73.496;2024-03-17T13:05:36;4.13;;;2.22;;
85726;SDS011;76171;45.484;-73.496;2024-03-17T13:08:02;6.07;;;3.63;;
85726;SDS011;76171;45.484;-73.496;2024-03-17T13:10:29;6.45;;;3.10;;
85726;SDS011;76171;45.484;-73.496;2024-03-17T13:13:02;4.82;;;3.22;;
85726;SDS011;76171;45.484;-73.496;2024-03-17T13:15:29;5.20;;;2.88;;
85726;SDS011;76171;45.484;-73.496;2024-03-17T13:17:56;6.95;;;3.15;;
85726;SDS011;76171;45.484;-73.496;2024-03-17T13:20:23;6.25;;;3.10;;
85726;SDS011;76171;45.484;-73.496;2024-03-17T13:22:49;7.05;;;3.80;;
85726;SDS011;76171;45.484;-73.496;2024-03-17T13:25:19;6.00;;;3.47;;
85726;SDS011;76171;45.484;-73.496;2024-03-17T13:27:48;5.47;;;2.72;;
85726;SDS011;76171;45.484;-73.496;2024-03-17T13:30:15;5.78;;;3.13;;
85726;SDS011;76171;45.484;-73.496;2024-03-17T13:32:42;5.60;;;3.13;;
85726;SDS011;76171;45.484;-73.496;2024-03-17T13:35:20;6.45;;;3.67;;
85726;SDS011;76171;45.484;-73.496;2024-03-17T13:37:47;6.55;;;3.45;;
85726;SDS011;76171;45.484;-73.496;2024-03-17T13:40:15;6.93;;;3.78;;
85726;SDS011;76171;45.484;-73.496;2024-03-17T13:42:48;6.45;;;3.53;;
85726;SDS011;76171;45.484;-73.496;2024-03-17T13:45:15;7.10;;;3.97;;
85726;SDS011;76171;45.484;-73.496;2024-03-17T13:47:43;6.15;;;3.35;;
85726;SDS011;76171;45.484;-73.496;2024-03-17T13:50:12;6.45;;;3.72;;
85726;SDS011;76171;45.484;-73.496;2024-03-17T13:52:39;8.18;;;3.10;;
85726;SDS011;76171;45.484;-73.496;2024-03-17T13:55:06;7.00;;;4.03;;
85726;SDS011;76171;45.484;-73.496;2024-03-17T13:57:34;5.68;;;3.45;;
85726;SDS011;76171;45.484;-73.496;2024-03-17T14:00:00;6.03;;;3.10;;
85726;SDS011;76171;45.484;-73.496;2024-03-17T14:02:27;6.43;;;3.08;;
85726;SDS011;76171;45.484;-73.496;2024-03-17T14:04:53;8.00;;;3.55;;
85726;SDS011;76171;45.484;-73.496;2024-03-17T14:07:21;6.57;;;3.25;;
85726;SDS011;76171;45.484;-73.496;2024-03-17T14:09:47;4.40;;;2.30;;
85726;SDS011;76171;45.484;-73.496;2024-03-17T14:12:13;5.15;;;2.90;;
85726;SDS011;76171;45.484;-73.496;2024-03-17T14:14:39;8.32;;;3.53;;
85726;SDS011;76171;45.484;-73.496;2024-03-17T14:17:05;6.10;;;3.28;;
85726;SDS011;76171;45.484;-73.496;2024-03-17T14:19:32;5.25;;;3.30;;
85726;SDS011;76171;45.484;-73.496;2024-03-17T14:22:00;4.03;;;2.42;;
85726;SDS011;76171;45.484;-73.496;2024-03-17T14:24:26;4.70;;;2.70;;
85726;SDS011;76171;45.484;-73.496;2024-03-17T14:26:53;4.80;;;2.63;;
85726;SDS011;76171;45.484;-73.496;2024-03-17T14:29:22;5.57;;;2.70;;
85726;SDS011;76171;45.484;-73.496;2024-03-17T14:31:50;5.50;;;2.92;;
85726;SDS011;76171;45.484;-73.496;2024-03-17T14:36:46;5.43;;;2.67;;
85726;SDS011;76171;45.484;-73.496;2024-03-17T14:39:17;4.93;;;2.70;;
85726;SDS011;76171;45.484;-73.496;2024-03-17T14:41:45;6.10;;;3.00;;
85726;SDS011;76171;45.484;-73.496;2024-03-17T14:44:11;7.35;;;2.92;;
85726;SDS011;76171;45.484;-73.496;2024-03-17T14:46:38;5.10;;;2.78;;
85726;SDS011;76171;45.484;-73.496;2024-03-17T14:49:05;5.28;;;2.58;;
85726;SDS011;76171;45.484;-73.496;2024-03-17T14:51:33;6.90;;;3.15;;
85726;SDS011;76171;45.484;-73.496;2024-03-17T14:53:59;7.30;;;2.97;;
85726;SDS011;76171;45.484;-73.496;2024-03-17T14:56:25;7.15;;;3.13;;
85726;SDS011;76171;45.484;-73.496;2024-03-17T14:58:54;5.78;;;2.83;;
85726;SDS011;76171;45.484;-73.496;2024-03-17T15:01:20;5.93;;;3.15;;
85726;SDS011;76171;45.484;-73.496;2024-03-17T15:06:23;4.97;;;2.85;;
85726;SDS011;76171;45.484;-73.496;2024-03-17T15:08:50;8.63;;;3.03;;
85726;SDS011;76171;45.484;-73.496;2024-03-17T15:11:21;5.53;;;2.72;;
85726;SDS011;76171;45.484;-73.496;2024-03-17T15:13:51;4.47;;;2.65;;
85726;SDS011;76171;45.484;-73.496;2024-03-17T15:16:19;5.78;;;3.63;;
85726;SDS011;76171;45.484;-73.496;2024-03-17T15:18:50;5.55;;;2.75;;
85726;SDS011;76171;45.484;-73.496;2024-03-17T15:21:18;5.68;;;3.05;;
85726;SDS011;76171;45.484;-73.496;2024-03-17T15:23:45;4.60;;;2.83;;
85726;SDS011;76171;45.484;-73.496;2024-03-17T15:26:15;5.45;;;2.70;;
85726;SDS011;76171;45.484;-73.496;2024-03-17T15:28:44;5.03;;;2.70;;
85726;SDS011;76171;45.484;-73.496;2024-03-17T15:31:10;3.58;;;2.08;;
85726;SDS011;76171;45.484;-73.496;2024-03-17T15:33:39;4.05;;;1.95;;
85726;SDS011;76171;45.484;-73.496;2024-03-17T15:36:08;4.07;;;2.00;;
85726;SDS011;76171;45.484;-73.496;2024-03-17T15:38:39;3.65;;;2.28;;
85726;SDS011;76171;45.484;-73.496;2024-03-17T15:41:05;4.72;;;2.35;;
85726;SDS011;76171;45.484;-73.496;2024-03-17T15:43:40;4.00;;;2.20;;
85726;SDS011;76171;45.484;-73.496;2024-03-17T15:46:13;2.95;;;1.42;;
85726;SDS011;76171;45.484;-73.496;2024-03-17T15:48:47;3.45;;;1.75;;
85726;SDS011;76171;45.484;-73.496;2024-03-17T15:51:14;2.80;;;1.85;;